CMB803 Details

Departure: Norfolk Naval Station (Chambers Field) (KNGU)
Arrival: Guantánamo Bay Naval Air Station (MUGM) at N/A
Route: SWOPE ECG DIW IDOLS Y323 CARPX AR3 NUCAR Y374 RUMFO ZIN EASTP SOUTP SOUTP2
Notes: USTRANSCOM CONTRACT FLIGHT | OVERFLIGHT OF CUBA PROHIBITED | SOUTP & EASTP FIXES MANDATORY


Current Weather Information
KNGU 190559Z 24003KT 10SM CLR 09/07 A3007 RMK AO2 SLP182 T00890067 10111 20078 53002
MUGM 190556Z 34008KT 9999 FEW030 FEW250 26/24 A2993 RMK SLP133 T02560239 10289 20256 58008